sensor_id;sensor_type;location;lat;lon;timestamp;pressure;altitude;pressure_sealevel;temperature;humidity
17505;BME280;8870;50.950;11.762;2024-03-25T00:04:01;97021.41;;;4.86;100.00
17505;BME280;8870;50.950;11.762;2024-03-25T00:09:15;97022.25;;;4.86;100.00
17505;BME280;8870;50.950;11.762;2024-03-25T00:14:45;97005.41;;;4.86;100.00
17505;BME280;8870;50.950;11.762;2024-03-25T00:20:00;97017.91;;;4.85;100.00
17505;BME280;8870;50.950;11.762;2024-03-25T00:25:28;97032.56;;;4.81;100.00
17505;BME280;8870;50.950;11.762;2024-03-25T00:30:45;97041.56;;;4.80;100.00
17505;BME280;8870;50.950;11.762;2024-03-25T00:36:13;97033.56;;;4.80;100.00
17505;BME280;8870;50.950;11.762;2024-03-25T00:41:28;97038.59;;;4.83;100.00
17505;BME280;8870;50.950;11.762;2024-03-25T00:46:59;97050.06;;;4.84;100.00
17505;BME280;8870;50.950;11.762;2024-03-25T00:52:14;97046.75;;;4.82;100.00
17505;BME280;8870;50.950;11.762;2024-03-25T00:57:44;97051.25;;;4.81;100.00
17505;BME280;8870;50.950;11.762;2024-03-25T01:03:02;97053.22;;;4.79;100.00
17505;BME280;8870;50.950;11.762;2024-03-25T01:08:30;97060.09;;;4.82;100.00
17505;BME280;8870;50.950;11.762;2024-03-25T01:13:44;97058.25;;;4.82;100.00
17505;BME280;8870;50.950;11.762;2024-03-25T01:19:14;97060.91;;;4.82;100.00
17505;BME280;8870;50.950;11.762;2024-03-25T01:24:29;97069.22;;;4.79;100.00
17505;BME280;8870;50.950;11.762;2024-03-25T01:29:57;97058.47;;;4.62;100.00
17505;BME280;8870;50.950;11.762;2024-03-25T01:35:14;97087.22;;;4.51;100.00
17505;BME280;8870;50.950;11.762;2024-03-25T01:40:42;97079.81;;;4.18;100.00
17505;BME280;8870;50.950;11.762;2024-03-25T01:45:56;97082.28;;;3.93;100.00
17505;BME280;8870;50.950;11.762;2024-03-25T01:51:27;97096.50;;;3.84;100.00
17505;BME280;8870;50.950;11.762;2024-03-25T01:56:43;97091.56;;;3.89;100.00
17505;BME280;8870;50.950;11.762;2024-03-25T02:02:12;97107.63;;;3.97;100.00
17505;BME280;8870;50.950;11.762;2024-03-25T02:07:30;97110.38;;;4.06;100.00
17505;BME280;8870;50.950;11.762;2024-03-25T02:12:59;97118.75;;;4.11;100.00
17505;BME280;8870;50.950;11.762;2024-03-25T02:18:16;97119.66;;;4.20;100.00
17505;BME280;8870;50.950;11.762;2024-03-25T02:23:47;97133.50;;;4.23;100.00
17505;BME280;8870;50.950;11.762;2024-03-25T02:29:05;97121.56;;;4.27;100.00
17505;BME280;8870;50.950;11.762;2024-03-25T02:34:33;97131.25;;;4.28;100.00
17505;BME280;8870;50.950;11.762;2024-03-25T02:40:02;97118.28;;;4.34;100.00
17505;BME280;8870;50.950;11.762;2024-03-25T02:45:20;97128.41;;;4.30;100.00
17505;BME280;8870;50.950;11.762;2024-03-25T02:50:48;97153.09;;;4.32;100.00
17505;BME280;8870;50.950;11.762;2024-03-25T02:56:04;97146.59;;;4.35;100.00
17505;BME280;8870;50.950;11.762;2024-03-25T03:01:35;97148.44;;;4.34;100.00
17505;BME280;8870;50.950;11.762;2024-03-25T03:06:49;97164.44;;;4.34;100.00
17505;BME280;8870;50.950;11.762;2024-03-25T03:12:17;97170.59;;;4.35;100.00
17505;BME280;8870;50.950;11.762;2024-03-25T03:17:35;97186.59;;;4.35;100.00
17505;BME280;8870;50.950;11.762;2024-03-25T03:23:03;97187.34;;;4.45;100.00
17505;BME280;8870;50.950;11.762;2024-03-25T03:28:18;97197.03;;;4.46;100.00
17505;BME280;8870;50.950;11.762;2024-03-25T03:33:49;97183.34;;;4.41;100.00
17505;BME280;8870;50.950;11.762;2024-03-25T03:39:03;97194.84;;;4.41;100.00
17505;BME280;8870;50.950;11.762;2024-03-25T03:44:31;97185.31;;;4.39;100.00
17505;BME280;8870;50.950;11.762;2024-03-25T03:49:48;97189.78;;;4.38;100.00
17505;BME280;8870;50.950;11.762;2024-03-25T03:55:16;97203.28;;;4.37;100.00
17505;BME280;8870;50.950;11.762;2024-03-25T04:00:33;97235.28;;;4.37;100.00
17505;BME280;8870;50.950;11.762;2024-03-25T04:06:10;97231.09;;;4.34;100.00
17505;BME280;8870;50.950;11.762;2024-03-25T04:11:26;97239.53;;;4.29;100.00
17505;BME280;8870;50.950;11.762;2024-03-25T04:16:54;97245.47;;;4.23;100.00
17505;BME280;8870;50.950;11.762;2024-03-25T04:22:11;97261.75;;;4.20;100.00
17505;BME280;8870;50.950;11.762;2024-03-25T04:27:39;97247.75;;;4.18;100.00
17505;BME280;8870;50.950;11.762;2024-03-25T04:32:54;97252.09;;;4.19;100.00
17505;BME280;8870;50.950;11.762;2024-03-25T04:38:25;97257.56;;;4.18;100.00
17505;BME280;8870;50.950;11.762;2024-03-25T04:43:53;97256.06;;;4.15;100.00
17505;BME280;8870;50.950;11.762;2024-03-25T04:49:07;97272.06;;;4.15;100.00
17505;BME280;8870;50.950;11.762;2024-03-25T04:54:38;97274.03;;;4.13;100.00
17505;BME280;8870;50.950;11.762;2024-03-25T04:59:52;97281.16;;;4.12;100.00
17505;BME280;8870;50.950;11.762;2024-03-25T05:05:20;97278.66;;;4.11;100.00
17505;BME280;8870;50.950;11.762;2024-03-25T05:10:38;97275.28;;;4.09;100.00
17505;BME280;8870;50.950;11.762;2024-03-25T05:16:08;97294.28;;;4.06;100.00
17505;BME280;8870;50.950;11.762;2024-03-25T05:21:23;97303.38;;;4.03;100.00
17505;BME280;8870;50.950;11.762;2024-03-25T05:26:53;97310.56;;;4.03;100.00
17505;BME280;8870;50.950;11.762;2024-03-25T05:32:08;97304.22;;;4.04;100.00
17505;BME280;8870;50.950;11.762;2024-03-25T05:37:36;97309.56;;;4.04;100.00
17505;BME280;8870;50.950;11.762;2024-03-25T05:43:07;97311.91;;;4.07;100.00
17505;BME280;8870;50.950;11.762;2024-03-25T05:48:21;97314.28;;;4.10;100.00
17505;BME280;8870;50.950;11.762;2024-03-25T05:53:50;97315.69;;;4.14;100.00
17505;BME280;8870;50.950;11.762;2024-03-25T05:59:07;97341.19;;;4.16;100.00
17505;BME280;8870;50.950;11.762;2024-03-25T06:04:35;97338.94;;;4.22;100.00
17505;BME280;8870;50.950;11.762;2024-03-25T06:09:50;97348.16;;;4.27;100.00
17505;BME280;8870;50.950;11.762;2024-03-25T06:15:21;97338.88;;;4.31;100.00
17505;BME280;8870;50.950;11.762;2024-03-25T06:20:35;97356.25;;;4.36;100.00
17505;BME280;8870;50.950;11.762;2024-03-25T06:26:03;97368.44;;;4.38;100.00
17505;BME280;8870;50.950;11.762;2024-03-25T06:31:20;97377.31;;;4.39;100.00
17505;BME280;8870;50.950;11.762;2024-03-25T06:37:03;97371.66;;;4.42;100.00
17505;BME280;8870;50.950;11.762;2024-03-25T06:42:18;97363.66;;;4.42;100.00
17505;BME280;8870;50.950;11.762;2024-03-25T06:47:49;97390.94;;;4.36;100.00
17505;BME280;8870;50.950;11.762;2024-03-25T06:53:03;97389.41;;;4.33;100.00
17505;BME280;8870;50.950;11.762;2024-03-25T06:58:32;97397.94;;;4.37;100.00
17505;BME280;8870;50.950;11.762;2024-03-25T07:03:50;97397.94;;;4.37;100.00
17505;BME280;8870;50.950;11.762;2024-03-25T07:09:18;97410.66;;;4.43;100.00
17505;BME280;8870;50.950;11.762;2024-03-25T07:14:33;97413.75;;;4.48;100.00
17505;BME280;8870;50.950;11.762;2024-03-25T07:20:05;97421.31;;;4.53;100.00
17505;BME280;8870;50.950;11.762;2024-03-25T07:25:19;97432.22;;;4.59;100.00
17505;BME280;8870;50.950;11.762;2024-03-25T07:30:49;97428.94;;;4.66;100.00
17505;BME280;8870;50.950;11.762;2024-03-25T07:36:07;97440.03;;;4.71;100.00
17505;BME280;8870;50.950;11.762;2024-03-25T07:41:35;97433.59;;;4.91;100.00
17505;BME280;8870;50.950;11.762;2024-03-25T07:46:49;97442.25;;;5.21;100.00
17505;BME280;8870;50.950;11.762;2024-03-25T07:52:20;97434.31;;;5.30;100.00
17505;BME280;8870;50.950;11.762;2024-03-25T07:57:34;97443.31;;;5.29;100.00
17505;BME280;8870;50.950;11.762;2024-03-25T08:03:02;97449.19;;;5.32;100.00
17505;BME280;8870;50.950;11.762;2024-03-25T08:08:20;97462.25;;;5.35;100.00
17505;BME280;8870;50.950;11.762;2024-03-25T08:13:48;97452.72;;;5.33;100.00
17505;BME280;8870;50.950;11.762;2024-03-25T08:19:03;97461.78;;;5.40;100.00
17505;BME280;8870;50.950;11.762;2024-03-25T08:24:34;97464.22;;;5.51;100.00
17505;BME280;8870;50.950;11.762;2024-03-25T08:29:48;97468.66;;;5.61;100.00
17505;BME280;8870;50.950;11.762;2024-03-25T08:35:16;97470.78;;;5.75;100.00
17505;BME280;8870;50.950;11.762;2024-03-25T08:40:34;97458.38;;;5.92;100.00
17505;BME280;8870;50.950;11.762;2024-03-25T08:46:02;97451.00;;;6.04;100.00
17505;BME280;8870;50.950;11.762;2024-03-25T08:51:17;97453.25;;;5.99;100.00
17505;BME280;8870;50.950;11.762;2024-03-25T08:56:48;97459.16;;;6.03;100.00
17505;BME280;8870;50.950;11.762;2024-03-25T09:02:02;97464.66;;;6.01;100.00
17505;BME280;8870;50.950;11.762;2024-03-25T09:07:30;97457.66;;;6.00;100.00
17505;BME280;8870;50.950;11.762;2024-03-25T09:12:48;97468.78;;;6.13;100.00
17505;BME280;8870;50.950;11.762;2024-03-25T09:18:16;97476.00;;;6.21;100.00
17505;BME280;8870;50.950;11.762;2024-03-25T09:23:31;97487.09;;;6.08;100.00
17505;BME280;8870;50.950;11.762;2024-03-25T09:29:02;97471.75;;;5.92;100.00
17505;BME280;8870;50.950;11.762;2024-03-25T09:34:17;97474.19;;;5.85;100.00
17505;BME280;8870;50.950;11.762;2024-03-25T09:39:45;97470.06;;;5.91;100.00
17505;BME280;8870;50.950;11.762;2024-03-25T09:45:02;97479.25;;;6.07;100.00
17505;BME280;8870;50.950;11.762;2024-03-25T09:50:32;97474.34;;;6.20;100.00
17505;BME280;8870;50.950;11.762;2024-03-25T09:55:46;97477.34;;;6.25;100.00
17505;BME280;8870;50.950;11.762;2024-03-25T10:01:18;97464.16;;;6.24;100.00
17505;BME280;8870;50.950;11.762;2024-03-25T10:06:33;97463.88;;;6.35;100.00
17505;BME280;8870;50.950;11.762;2024-03-25T10:12:01;97467.25;;;6.37;100.00
17505;BME280;8870;50.950;11.762;2024-03-25T10:17:19;97471.44;;;6.40;100.00
17505;BME280;8870;50.950;11.762;2024-03-25T10:22:47;97470.53;;;6.57;100.00
17505;BME280;8870;50.950;11.762;2024-03-25T10:28:02;97472.94;;;6.69;100.00
17505;BME280;8870;50.950;11.762;2024-03-25T10:33:33;97469.44;;;6.76;100.00
17505;BME280;8870;50.950;11.762;2024-03-25T10:38:55;97475.00;;;6.83;100.00
17505;BME280;8870;50.950;11.762;2024-03-25T10:44:24;97468.81;;;6.83;100.00
17505;BME280;8870;50.950;11.762;2024-03-25T10:49:48;97467.00;;;6.91;100.00
17505;BME280;8870;50.950;11.762;2024-03-25T10:55:17;97465.19;;;7.00;100.00
17505;BME280;8870;50.950;11.762;2024-03-25T11:00:33;97463.38;;;7.09;100.00
17505;BME280;8870;50.950;11.762;2024-03-25T11:06:05;97467.22;;;7.06;100.00
17505;BME280;8870;50.950;11.762;2024-03-25T11:11:19;97459.88;;;7.17;100.00
17505;BME280;8870;50.950;11.762;2024-03-25T11:16:51;97453.06;;;7.39;100.00
17505;BME280;8870;50.950;11.762;2024-03-25T11:22:10;97450.91;;;7.43;100.00
17505;BME280;8870;50.950;11.762;2024-03-25T11:27:38;97446.84;;;7.38;100.00
17505;BME280;8870;50.950;11.762;2024-03-25T11:32:53;97449.72;;;7.37;100.00
17505;BME280;8870;50.950;11.762;2024-03-25T11:38:25;97441.00;;;7.43;100.00
17505;BME280;8870;50.950;11.762;2024-03-25T11:43:53;97441.19;;;7.50;100.00
17505;BME280;8870;50.950;11.762;2024-03-25T11:49:14;97438.34;;;7.51;100.00
17505;BME280;8870;50.950;11.762;2024-03-25T11:54:45;97449.22;;;7.50;100.00
17505;BME280;8870;50.950;11.762;2024-03-25T12:00:08;97437.84;;;7.56;100.00
17505;BME280;8870;50.950;11.762;2024-03-25T12:05:39;97434.31;;;7.80;100.00
17505;BME280;8870;50.950;11.762;2024-03-25T12:10:56;97433.66;;;7.95;100.00
17505;BME280;8870;50.950;11.762;2024-03-25T12:16:40;97418.41;;;8.04;100.00
17505;BME280;8870;50.950;11.762;2024-03-25T12:21:59;97413.69;;;7.97;100.00
17505;BME280;8870;50.950;11.762;2024-03-25T12:27:30;97413.91;;;7.88;100.00
17505;BME280;8870;50.950;11.762;2024-03-25T12:32:45;97405.31;;;8.00;100.00
17505;BME280;8870;50.950;11.762;2024-03-25T12:38:24;97404.78;;;8.13;100.00
17505;BME280;8870;50.950;11.762;2024-03-25T12:43:55;97406.00;;;8.02;100.00
17505;BME280;8870;50.950;11.762;2024-03-25T12:49:09;97397.09;;;8.02;100.00
17505;BME280;8870;50.950;11.762;2024-03-25T12:54:38;97393.44;;;7.95;100.00
17505;BME280;8870;50.950;11.762;2024-03-25T12:59:56;97384.81;;;8.24;100.00
17505;BME280;8870;50.950;11.762;2024-03-25T13:05:24;97386.25;;;8.43;100.00
17505;BME280;8870;50.950;11.762;2024-03-25T13:10:39;97382.91;;;8.58;100.00
17505;BME280;8870;50.950;11.762;2024-03-25T13:16:11;97379.63;;;8.71;100.00
17505;BME280;8870;50.950;11.762;2024-03-25T13:21:25;97374.94;;;8.73;100.00
17505;BME280;8870;50.950;11.762;2024-03-25T13:26:54;97372.47;;;8.94;100.00
17505;BME280;8870;50.950;11.762;2024-03-25T13:32:11;97362.84;;;9.00;100.00
17505;BME280;8870;50.950;11.762;2024-03-25T13:37:39;97365.28;;;8.87;100.00
17505;BME280;8870;50.950;11.762;2024-03-25T13:43:07;97369.84;;;8.78;100.00
17505;BME280;8870;50.950;11.762;2024-03-25T13:48:24;97365.34;;;8.78;100.00
17505;BME280;8870;50.950;11.762;2024-03-25T13:53:52;97362.66;;;8.78;100.00
17505;BME280;8870;50.950;11.762;2024-03-25T13:59:06;97351.06;;;8.78;100.00
17505;BME280;8870;50.950;11.762;2024-03-25T14:04:37;97347.84;;;8.83;100.00
17505;BME280;8870;50.950;11.762;2024-03-25T14:09:51;97351.91;;;8.78;100.00
17505;BME280;8870;50.950;11.762;2024-03-25T14:15:19;97351.06;;;8.78;100.00
17505;BME280;8870;50.950;11.762;2024-03-25T14:20:36;97355.41;;;8.87;100.00
17505;BME280;8870;50.950;11.762;2024-03-25T14:26:04;97334.50;;;8.98;100.00
17505;BME280;8870;50.950;11.762;2024-03-25T14:31:18;97331.38;;;8.86;100.00
17505;BME280;8870;50.950;11.762;2024-03-25T14:36:49;97330.09;;;8.73;100.00
17505;BME280;8870;50.950;11.762;2024-03-25T14:42:04;97319.56;;;8.72;100.00
17505;BME280;8870;50.950;11.762;2024-03-25T14:47:32;97306.91;;;8.81;100.00
17505;BME280;8870;50.950;11.762;2024-03-25T14:52:50;97304.41;;;9.25;100.00
17505;BME280;8870;50.950;11.762;2024-03-25T14:58:18;97300.81;;;9.86;100.00
17505;BME280;8870;50.950;11.762;2024-03-25T15:03:32;97290.88;;;10.47;100.00
17505;BME280;8870;50.950;11.762;2024-03-25T15:09:03;97291.59;;;10.56;100.00
17505;BME280;8870;50.950;11.762;2024-03-25T15:14:17;97290.31;;;10.37;100.00
17505;BME280;8870;50.950;11.762;2024-03-25T15:19:45;97279.53;;;10.37;100.00
17505;BME280;8870;50.950;11.762;2024-03-25T15:25:04;97269.56;;;10.67;100.00
17505;BME280;8870;50.950;11.762;2024-03-25T15:30:32;97269.19;;;10.70;100.00
17505;BME280;8870;50.950;11.762;2024-03-25T15:35:53;97264.66;;;10.56;100.00
17505;BME280;8870;50.950;11.762;2024-03-25T15:41:24;97259.41;;;10.47;100.00
17505;BME280;8870;50.950;11.762;2024-03-25T15:46:38;97249.25;;;10.64;100.00
17505;BME280;8870;50.950;11.762;2024-03-25T15:52:06;97253.75;;;11.01;100.00
17505;BME280;8870;50.950;11.762;2024-03-25T15:57:23;97257.84;;;10.97;100.00
17505;BME280;8870;50.950;11.762;2024-03-25T16:02:51;97258.03;;;10.73;100.00
17505;BME280;8870;50.950;11.762;2024-03-25T16:08:06;97246.63;;;10.93;100.00
17505;BME280;8870;50.950;11.762;2024-03-25T16:13:37;97245.44;;;10.59;100.00
17505;BME280;8870;50.950;11.762;2024-03-25T16:18:51;97242.66;;;10.15;100.00
17505;BME280;8870;50.950;11.762;2024-03-25T16:24:22;97243.25;;;10.17;100.00
17505;BME280;8870;50.950;11.762;2024-03-25T16:29:39;97248.28;;;10.21;100.00
17505;BME280;8870;50.950;11.762;2024-03-25T16:35:08;97240.50;;;9.96;100.00
17505;BME280;8870;50.950;11.762;2024-03-25T16:40:36;97230.59;;;9.66;100.00
17505;BME280;8870;50.950;11.762;2024-03-25T16:45:54;97227.59;;;9.31;100.00
17505;BME280;8870;50.950;11.762;2024-03-25T16:51:22;97223.72;;;8.96;100.00
17505;BME280;8870;50.950;11.762;2024-03-25T16:56:36;97226.78;;;8.69;100.00
17505;BME280;8870;50.950;11.762;2024-03-25T17:02:07;97233.84;;;8.62;100.00
17505;BME280;8870;50.950;11.762;2024-03-25T17:07:21;97238.16;;;8.48;100.00
17505;BME280;8870;50.950;11.762;2024-03-25T17:12:49;97245.56;;;8.38;100.00
17505;BME280;8870;50.950;11.762;2024-03-25T17:18:10;97248.31;;;8.21;100.00
17505;BME280;8870;50.950;11.762;2024-03-25T17:23:38;97247.75;;;7.94;100.00
17505;BME280;8870;50.950;11.762;2024-03-25T17:28:52;97238.81;;;7.62;100.00
17505;BME280;8870;50.950;11.762;2024-03-25T17:34:23;97236.22;;;7.29;100.00
17505;BME280;8870;50.950;11.762;2024-03-25T17:39:44;97231.72;;;7.05;100.00
17505;BME280;8870;50.950;11.762;2024-03-25T17:45:12;97236.91;;;6.82;100.00
17505;BME280;8870;50.950;11.762;2024-03-25T17:50:43;97231.03;;;6.61;100.00
17505;BME280;8870;50.950;11.762;2024-03-25T17:55:57;97226.84;;;6.51;100.00
17505;BME280;8870;50.950;11.762;2024-03-25T18:01:26;97230.50;;;6.33;100.00
17505;BME280;8870;50.950;11.762;2024-03-25T18:06:43;97240.13;;;6.09;100.00
17505;BME280;8870;50.950;11.762;2024-03-25T18:12:11;97227.81;;;5.90;100.00
17505;BME280;8870;50.950;11.762;2024-03-25T18:17:25;97228.28;;;5.77;100.00
17505;BME280;8870;50.950;11.762;2024-03-25T18:22:56;97228.88;;;5.63;100.00
17505;BME280;8870;50.950;11.762;2024-03-25T18:28:12;97217.44;;;5.44;100.00
17505;BME280;8870;50.950;11.762;2024-03-25T18:33:40;97208.78;;;5.24;100.00
17505;BME280;8870;50.950;11.762;2024-03-25T18:39:05;97200.84;;;5.06;100.00
17505;BME280;8870;50.950;11.762;2024-03-25T18:44:33;97202.78;;;4.96;100.00
17505;BME280;8870;50.950;11.762;2024-03-25T18:49:49;97207.22;;;4.87;100.00
17505;BME280;8870;50.950;11.762;2024-03-25T18:55:20;97199.91;;;4.71;100.00
17505;BME280;8870;50.950;11.762;2024-03-25T19:00:35;97206.31;;;4.60;100.00
17505;BME280;8870;50.950;11.762;2024-03-25T19:06:03;97209.09;;;4.50;100.00
17505;BME280;8870;50.950;11.762;2024-03-25T19:11:20;97211.66;;;4.42;100.00
17505;BME280;8870;50.950;11.762;2024-03-25T19:16:48;97222.41;;;4.32;100.00
17505;BME280;8870;50.950;11.762;2024-03-25T19:22:03;97218.28;;;4.20;100.00
17505;BME280;8870;50.950;11.762;2024-03-25T19:27:33;97220.72;;;4.13;100.00
17505;BME280;8870;50.950;11.762;2024-03-25T19:32:48;97216.28;;;4.04;100.00
17505;BME280;8870;50.950;11.762;2024-03-25T19:38:16;97215.06;;;3.98;100.00
17505;BME280;8870;50.950;11.762;2024-03-25T19:43:33;97227.16;;;3.92;100.00
17505;BME280;8870;50.950;11.762;2024-03-25T19:49:01;97208.09;;;3.87;100.00
17505;BME280;8870;50.950;11.762;2024-03-25T19:54:16;97222.16;;;3.79;100.00
17505;BME280;8870;50.950;11.762;2024-03-25T19:59:50;97215.47;;;3.75;100.00
17505;BME280;8870;50.950;11.762;2024-03-25T20:05:13;97213.22;;;3.70;100.00
17505;BME280;8870;50.950;11.762;2024-03-25T20:10:41;97213.53;;;3.67;100.00
17505;BME280;8870;50.950;11.762;2024-03-25T20:15:59;97212.84;;;3.65;100.00
17505;BME280;8870;50.950;11.762;2024-03-25T20:21:27;97220.56;;;3.59;100.00
17505;BME280;8870;50.950;11.762;2024-03-25T20:26:43;97201.00;;;3.50;100.00
17505;BME280;8870;50.950;11.762;2024-03-25T20:32:13;97197.94;;;3.45;100.00
17505;BME280;8870;50.950;11.762;2024-03-25T20:37:27;97207.47;;;3.37;100.00
17505;BME280;8870;50.950;11.762;2024-03-25T20:42:55;97199.13;;;3.32;100.00
17505;BME280;8870;50.950;11.762;2024-03-25T20:48:12;97195.34;;;3.25;100.00
17505;BME280;8870;50.950;11.762;2024-03-25T20:53:40;97189.75;;;3.18;100.00
17505;BME280;8870;50.950;11.762;2024-03-25T20:58:55;97191.03;;;3.14;100.00
17505;BME280;8870;50.950;11.762;2024-03-25T21:04:25;97181.81;;;3.08;100.00
17505;BME280;8870;50.950;11.762;2024-03-25T21:09:39;97170.47;;;3.06;100.00
17505;BME280;8870;50.950;11.762;2024-03-25T21:15:08;97165.72;;;3.00;100.00
17505;BME280;8870;50.950;11.762;2024-03-25T21:20:25;97165.31;;;2.95;100.00
17505;BME280;8870;50.950;11.762;2024-03-25T21:25:53;97160.88;;;2.86;100.00
17505;BME280;8870;50.950;11.762;2024-03-25T21:31:08;97161.97;;;2.83;100.00
17505;BME280;8870;50.950;11.762;2024-03-25T21:36:39;97161.44;;;2.80;100.00
17505;BME280;8870;50.950;11.762;2024-03-25T21:41:53;97151.38;;;2.73;100.00
17505;BME280;8870;50.950;11.762;2024-03-25T21:47:21;97155.31;;;2.69;100.00
17505;BME280;8870;50.950;11.762;2024-03-25T21:52:39;97147.59;;;2.66;100.00
17505;BME280;8870;50.950;11.762;2024-03-25T21:58:08;97145.25;;;2.63;100.00
17505;BME280;8870;50.950;11.762;2024-03-25T22:03:24;97148.03;;;2.61;100.00
17505;BME280;8870;50.950;11.762;2024-03-25T22:08:55;97144.81;;;2.58;100.00
17505;BME280;8870;50.950;11.762;2024-03-25T22:14:10;97136.03;;;2.57;100.00
17505;BME280;8870;50.950;11.762;2024-03-25T22:19:37;97133.38;;;2.57;100.00
17505;BME280;8870;50.950;11.762;2024-03-25T22:24:54;97130.00;;;2.55;100.00
17505;BME280;8870;50.950;11.762;2024-03-25T22:30:22;97112.81;;;2.50;100.00
17505;BME280;8870;50.950;11.762;2024-03-25T22:35:37;97113.09;;;2.46;100.00
17505;BME280;8870;50.950;11.762;2024-03-25T22:41:08;97113.53;;;2.42;100.00
17505;BME280;8870;50.950;11.762;2024-03-25T22:46:23;97102.47;;;2.37;100.00
17505;BME280;8870;50.950;11.762;2024-03-25T22:51:50;97095.06;;;2.30;100.00
17505;BME280;8870;50.950;11.762;2024-03-25T22:57:07;97091.88;;;2.27;100.00
17505;BME280;8870;50.950;11.762;2024-03-25T23:02:35;97089.06;;;2.19;100.00
17505;BME280;8870;50.950;11.762;2024-03-25T23:07:50;97091.31;;;2.13;100.00
17505;BME280;8870;50.950;11.762;2024-03-25T23:13:20;97084.59;;;2.09;100.00
17505;BME280;8870;50.950;11.762;2024-03-25T23:18:34;97090.19;;;2.06;100.00
17505;BME280;8870;50.950;11.762;2024-03-25T23:24:03;97079.16;;;2.01;100.00
17505;BME280;8870;50.950;11.762;2024-03-25T23:29:20;97087.66;;;1.95;100.00
17505;BME280;8870;50.950;11.762;2024-03-25T23:34:48;97089.63;;;1.83;100.00
17505;BME280;8870;50.950;11.762;2024-03-25T23:40:10;97082.94;;;1.69;100.00
17505;BME280;8870;50.950;11.762;2024-03-25T23:45:41;97086.38;;;1.60;100.00
17505;BME280;8870;50.950;11.762;2024-03-25T23:50:55;97074.94;;;1.49;100.00
17505;BME280;8870;50.950;11.762;2024-03-25T23:56:23;97071.16;;;1.42;100.00
